createdAt,value
2017-12-05T00:01:54.454Z,92.07
2017-12-05T00:07:57.962Z,92.31
2017-12-05T00:14:02.294Z,92.72
2017-12-05T00:20:05.797Z,93.17
2017-12-05T00:26:10.155Z,93.25
2017-12-05T00:32:13.829Z,93.23
2017-12-05T00:38:18.139Z,92.85
2017-12-05T00:44:22.517Z,92.51
2017-12-05T00:50:26.567Z,92.35
2017-12-05T00:56:30.238Z,91.94
2017-12-05T01:02:33.766Z,91.61
2017-12-05T01:08:37.411Z,91.09
2017-12-05T01:14:41.711Z,90.61
2017-12-05T01:20:45.242Z,90.38
2017-12-05T01:26:49.542Z,89.55
2017-12-05T01:32:53.292Z,88.92
2017-12-05T01:38:56.964Z,88.80
2017-12-05T01:45:00.514Z,89.24
2017-12-05T01:51:05.225Z,89.53
2017-12-05T01:57:11.086Z,89.46
2017-12-05T02:03:14.783Z,89.80
2017-12-05T02:09:18.290Z,89.61
2017-12-05T02:15:22.735Z,88.94
2017-12-05T02:21:26.440Z,88.14
2017-12-05T02:27:30.007Z,87.55
2017-12-05T02:33:33.664Z,87.59
2017-12-05T02:39:37.318Z,87.80
2017-12-05T02:45:40.853Z,87.87
2017-12-05T02:51:44.517Z,87.44
2017-12-05T02:57:48.034Z,87.77
2017-12-05T03:03:51.613Z,87.74
2017-12-05T03:09:55.150Z,88.09
2017-12-05T03:15:58.662Z,87.93
2017-12-05T03:22:02.196Z,87.54
2017-12-05T03:28:05.772Z,87.53
2017-12-05T03:34:09.325Z,87.45
2017-12-05T03:40:12.890Z,86.88
2017-12-05T03:46:16.439Z,87.34
2017-12-05T03:52:20.338Z,87.61
2017-12-05T03:58:24.284Z,87.94
2017-12-05T04:04:27.826Z,87.93
2017-12-05T04:10:31.339Z,88.21
2017-12-05T04:16:36.066Z,88.05
2017-12-05T04:22:39.717Z,88.33
2017-12-05T04:28:43.282Z,88.40
2017-12-05T04:34:46.857Z,88.36
2017-12-05T04:40:50.522Z,88.06
2017-12-05T04:46:55.811Z,87.75
2017-12-05T04:52:59.326Z,87.81
2017-12-05T04:59:02.990Z,87.36
2017-12-05T05:05:06.498Z,87.47
2017-12-05T05:11:10.045Z,87.72
2017-12-05T05:17:13.735Z,87.71
2017-12-05T05:23:17.469Z,87.19
2017-12-05T05:29:21.781Z,87.17
2017-12-05T05:35:26.379Z,87.10
2017-12-05T05:41:30.235Z,87.15
2017-12-05T05:47:33.780Z,87.23
2017-12-05T05:53:38.155Z,87.51
2017-12-05T05:59:41.931Z,87.48
2017-12-05T06:05:45.451Z,87.55
2017-12-05T06:11:48.999Z,87.45
2017-12-05T06:17:53.444Z,88.30
2017-12-05T06:23:57.054Z,88.97
2017-12-05T06:30:00.567Z,89.18
2017-12-05T06:36:04.148Z,89.49
2017-12-05T06:42:08.430Z,89.25
2017-12-05T06:48:11.947Z,89.06
2017-12-05T06:54:16.267Z,89.28
2017-12-05T07:00:19.767Z,89.63
2017-12-05T07:06:24.311Z,90.34
2017-12-05T07:12:27.852Z,90.62
2017-12-05T07:18:31.349Z,91.16
2017-12-05T07:24:34.917Z,91.48
2017-12-05T07:30:38.449Z,91.90
2017-12-05T07:36:42.016Z,92.14
2017-12-05T07:42:45.573Z,92.37
2017-12-05T07:48:49.857Z,92.53
2017-12-05T07:54:53.848Z,92.34
2017-12-05T08:00:57.395Z,92.58
2017-12-05T08:07:00.927Z,92.15
2017-12-05T08:13:04.510Z,92.05
2017-12-05T08:19:08.775Z,91.59
2017-12-05T08:25:13.123Z,91.29
2017-12-05T08:31:16.910Z,90.72
2017-12-05T08:37:21.667Z,90.21
2017-12-05T08:43:25.251Z,89.30
2017-12-05T08:49:29.588Z,88.74
2017-12-05T08:55:33.110Z,88.62
2017-12-05T09:01:36.715Z,88.52
2017-12-05T09:07:40.210Z,88.31
2017-12-05T09:13:43.798Z,88.02
2017-12-05T09:19:47.581Z,87.52
2017-12-05T09:25:51.254Z,87.51
2017-12-05T09:31:55.900Z,87.03
2017-12-05T09:37:59.568Z,86.86
2017-12-05T09:44:03.084Z,86.43
2017-12-05T09:50:06.582Z,86.12
2017-12-05T09:56:11.027Z,85.95
2017-12-05T10:02:14.639Z,85.99
2017-12-05T10:08:18.927Z,85.39
2017-12-05T10:14:22.467Z,85.28
2017-12-05T10:20:26.057Z,85.47
2017-12-05T10:26:30.027Z,85.28
2017-12-05T10:32:33.566Z,85.17
2017-12-05T10:38:37.079Z,84.75
2017-12-05T10:44:40.584Z,85.09
2017-12-05T10:50:44.231Z,85.50
2017-12-05T10:56:48.664Z,86.14
2017-12-05T11:02:52.310Z,86.27
2017-12-05T11:08:55.944Z,86.48
2017-12-05T11:14:59.468Z,86.93
2017-12-05T11:21:03.801Z,87.46
2017-12-05T11:27:07.351Z,87.19
2017-12-05T11:33:10.914Z,87.02
2017-12-05T11:39:14.483Z,86.98
2017-12-05T11:45:18.098Z,87.08
2017-12-05T11:51:21.713Z,86.71
2017-12-05T11:57:26.313Z,86.02
2017-12-05T12:03:29.946Z,85.70
2017-12-05T12:09:34.319Z,85.15
2017-12-05T12:15:37.843Z,85.07
2017-12-05T12:21:41.564Z,84.50
2017-12-05T12:27:45.247Z,84.09
2017-12-05T12:33:48.768Z,84.12
2017-12-05T12:39:53.742Z,83.90
2017-12-05T12:45:57.570Z,83.46
2017-12-05T12:52:01.131Z,82.52
2017-12-05T12:58:04.977Z,82.37
2017-12-05T13:04:08.507Z,81.85
2017-12-05T13:10:12.979Z,81.53
2017-12-05T13:16:16.582Z,80.59
2017-12-05T13:22:20.179Z,80.88
2017-12-05T13:28:24.741Z,80.34
2017-12-05T13:34:28.311Z,79.45
2017-12-05T13:40:31.839Z,80.00
2017-12-05T13:46:35.478Z,79.57
2017-12-05T13:52:39.044Z,79.05
2017-12-05T13:58:42.600Z,78.46
2017-12-05T14:04:46.114Z,79.18
2017-12-05T14:10:49.650Z,79.04
2017-12-05T14:16:53.663Z,78.52
2017-12-05T14:22:57.989Z,79.09
2017-12-05T14:29:01.583Z,79.22
2017-12-05T14:35:05.127Z,78.37
2017-12-05T14:41:08.662Z,78.55
2017-12-05T14:47:12.222Z,78.63
2017-12-05T14:53:15.910Z,78.58
2017-12-05T14:59:19.456Z,78.50
2017-12-05T15:05:23.212Z,79.51
2017-12-05T15:11:26.843Z,79.09
2017-12-05T15:17:30.379Z,79.52
2017-12-05T15:23:34.673Z,79.83
2017-12-05T15:29:38.215Z,80.29
2017-12-05T15:35:41.778Z,80.24
2017-12-05T15:41:45.445Z,79.86
2017-12-05T15:47:49.039Z,79.98
2017-12-05T15:53:52.571Z,79.71
2017-12-05T15:59:56.150Z,79.89
2017-12-05T16:05:59.675Z,80.03
2017-12-05T16:12:03.189Z,79.38
2017-12-05T16:18:07.548Z,79.09
2017-12-05T16:24:11.858Z,79.12
2017-12-05T16:30:15.946Z,79.76
2017-12-05T16:36:19.517Z,80.03
2017-12-05T16:42:23.127Z,80.37
2017-12-05T16:48:26.681Z,80.34
2017-12-05T16:54:30.384Z,80.65
2017-12-05T17:00:34.058Z,80.63
2017-12-05T17:06:37.619Z,80.77
2017-12-05T17:12:41.140Z,80.62
2017-12-05T17:18:44.826Z,80.62
2017-12-05T17:24:48.523Z,80.51
2017-12-05T17:30:52.936Z,81.02
2017-12-05T17:36:57.507Z,80.26
2017-12-05T17:43:01.034Z,80.35
2017-12-05T17:49:04.582Z,80.36
2017-12-05T17:55:08.899Z,80.23
2017-12-05T18:01:12.475Z,80.39
2017-12-05T18:07:16.142Z,80.64
2017-12-05T18:13:19.687Z,80.14
2017-12-05T18:19:23.352Z,80.24
2017-12-05T18:25:27.022Z,79.73
2017-12-05T18:31:31.395Z,79.55
2017-12-05T18:37:35.098Z,79.76
2017-12-05T18:43:38.612Z,79.75
2017-12-05T18:49:42.968Z,79.14
2017-12-05T18:55:48.279Z,79.34
2017-12-05T19:01:52.263Z,79.10
2017-12-05T19:07:56.610Z,79.23
2017-12-05T19:14:00.144Z,79.25
2017-12-05T19:20:03.997Z,79.69
2017-12-05T19:26:07.581Z,79.60
2017-12-05T19:32:11.303Z,80.30
2017-12-05T19:38:14.884Z,79.78
2017-12-05T19:44:18.418Z,80.00
2017-12-05T19:50:22.093Z,79.64
2017-12-05T19:56:26.461Z,80.58
2017-12-05T20:02:30.031Z,80.52
2017-12-05T20:08:33.619Z,80.38
2017-12-05T20:14:37.929Z,80.24
2017-12-05T20:20:41.434Z,80.16
2017-12-05T20:26:45.079Z,79.34
2017-12-05T20:32:48.628Z,79.32
2017-12-05T20:38:53.525Z,79.72
2017-12-05T20:44:57.101Z,79.75
2017-12-05T20:51:01.403Z,79.43
2017-12-05T20:57:04.968Z,79.40
2017-12-05T21:03:08.503Z,79.17
2017-12-05T21:09:12.986Z,78.24
2017-12-05T21:15:16.541Z,76.99
2017-12-05T21:21:20.110Z,77.06
2017-12-05T21:27:23.684Z,77.17
2017-12-05T21:33:27.420Z,77.27
2017-12-05T21:39:31.190Z,78.30
2017-12-05T21:45:34.720Z,78.49
2017-12-05T21:51:38.260Z,78.81
2017-12-05T21:57:42.593Z,78.77
2017-12-05T22:03:46.127Z,78.04
2017-12-05T22:09:49.698Z,77.60
2017-12-05T22:15:53.714Z,77.66
2017-12-05T22:21:58.048Z,77.62
2017-12-05T22:28:01.985Z,77.91
2017-12-05T22:34:05.526Z,78.18
2017-12-05T22:40:09.388Z,77.89
2017-12-05T22:46:12.967Z,77.64
2017-12-05T22:52:16.502Z,78.33
2017-12-05T22:58:20.364Z,77.62
2017-12-05T23:04:24.027Z,77.24
2017-12-05T23:10:27.597Z,77.11
2017-12-05T23:16:31.159Z,76.42
2017-12-05T23:22:35.008Z,75.09
2017-12-05T23:28:38.667Z,76.00
2017-12-05T23:34:42.246Z,75.74
2017-12-05T23:40:45.801Z,75.29
2017-12-05T23:46:49.328Z,74.91
2017-12-05T23:52:53.337Z,75.52
2017-12-05T23:58:57.679Z,75.83
